Terminal Aerodrome Forecast
Issued by NWS

Home | Current Version | Previous Version | Text Only | Print | Product List | Glossary On
Versions: 1 2 3 4 5 6 7 8 9 10 11 12
000
FTUS42 TJSJ 152320
TAFKPK
TAF
TKPK 152320Z 1600/1624 06010KT P6SM FEW020
     FM161200 05017KT P6SM SCT020
     FM162300 06011KT P6SM FEW022
      AMD NOT SKED 1602/1611=

USA.gov is the U.S. government's official web portal to all federal, state and local government web resources and services.